createdAt,value
2023-04-16T04:00:42.570Z,8.53
2023-04-16T04:01:43.592Z,8.50
2023-04-16T04:02:43.790Z,8.48
2023-04-16T04:03:43.716Z,8.50
2023-04-16T04:04:43.631Z,8.48
2023-04-16T04:05:43.593Z,8.48
2023-04-16T04:06:43.485Z,8.48
2023-04-16T04:07:43.494Z,8.47
2023-04-16T04:08:43.476Z,8.50
2023-04-16T04:09:43.456Z,8.50
2023-04-16T04:10:43.481Z,8.48
2023-04-16T04:11:43.465Z,8.48
2023-04-16T04:12:43.436Z,8.50
2023-04-16T04:13:43.420Z,8.50
2023-04-16T04:14:43.406Z,8.48
2023-04-16T04:15:43.385Z,8.53
2023-04-16T04:16:43.473Z,8.50
2023-04-16T04:17:43.418Z,8.50
2023-04-16T04:18:44.478Z,8.50
2023-04-16T04:19:54.275Z,8.50
2023-04-16T04:20:43.358Z,8.52
2023-04-16T04:21:43.361Z,8.50
2023-04-16T04:22:43.328Z,8.50
2023-04-16T04:23:43.328Z,8.50
2023-04-16T04:24:43.332Z,8.48
2023-04-16T04:25:43.296Z,8.48
2023-04-16T04:26:43.326Z,8.50
2023-04-16T04:27:43.257Z,8.48
2023-04-16T04:28:43.288Z,8.48
2023-04-16T04:29:43.259Z,8.47
2023-04-16T04:30:43.258Z,8.48
2023-04-16T04:31:43.300Z,8.48
2023-04-16T04:32:43.304Z,8.48
2023-04-16T04:33:43.222Z,8.44
2023-04-16T04:34:43.215Z,8.44
2023-04-16T04:35:43.194Z,8.45
2023-04-16T04:36:43.206Z,8.45
2023-04-16T04:37:43.167Z,8.44
2023-04-16T04:38:43.161Z,8.44
2023-04-16T04:39:43.161Z,8.41
2023-04-16T04:40:43.131Z,8.44
2023-04-16T04:41:43.154Z,8.44
2023-04-16T04:42:43.131Z,8.44
2023-04-16T04:43:43.128Z,8.41
2023-04-16T04:44:43.101Z,8.43
2023-04-16T04:45:43.150Z,8.43
2023-04-16T04:46:43.123Z,8.44
2023-04-16T04:47:43.114Z,8.41
2023-04-16T04:48:43.086Z,8.40
2023-04-16T04:49:43.029Z,8.40
2023-04-16T04:50:43.033Z,8.41
2023-04-16T04:51:43.108Z,8.40
2023-04-16T04:52:43.012Z,8.40
2023-04-16T04:53:43.018Z,8.38
2023-04-16T04:54:43.027Z,8.37
2023-04-16T04:55:42.984Z,8.37
2023-04-16T04:56:42.985Z,8.36
2023-04-16T04:57:42.965Z,8.36
2023-04-16T04:58:42.980Z,8.36
2023-04-16T04:59:42.931Z,8.34
2023-04-16T05:00:43.096Z,8.34
2023-04-16T05:01:42.927Z,8.33
2023-04-16T05:02:43.013Z,8.33
2023-04-16T05:03:42.982Z,8.30
2023-04-16T05:04:43.068Z,8.30
2023-04-16T05:05:42.864Z,8.29
2023-04-16T05:06:42.876Z,8.30
2023-04-16T05:07:42.848Z,8.30
2023-04-16T05:08:42.844Z,8.33
2023-04-16T05:09:42.825Z,8.28
2023-04-16T05:10:42.818Z,8.25
2023-04-16T05:11:43.090Z,8.25
2023-04-16T05:12:42.795Z,8.26
2023-04-16T05:13:42.815Z,8.28
2023-04-16T05:14:42.774Z,8.26
2023-04-16T05:15:42.782Z,8.26
2023-04-16T05:16:42.805Z,8.26
2023-04-16T05:17:42.821Z,8.28
2023-04-16T05:18:42.733Z,8.25
2023-04-16T05:19:42.724Z,8.23
2023-04-16T05:20:42.712Z,8.26
2023-04-16T05:21:42.734Z,8.28
2023-04-16T05:22:42.691Z,8.28
2023-04-16T05:23:42.701Z,8.29
2023-04-16T05:24:42.767Z,8.29
2023-04-16T05:25:42.696Z,8.28
2023-04-16T05:26:42.685Z,8.33
2023-04-16T05:27:42.652Z,8.30
2023-04-16T05:28:42.656Z,8.33
2023-04-16T05:29:42.646Z,8.33
2023-04-16T05:30:42.685Z,8.29
2023-04-16T05:31:42.626Z,8.28
2023-04-16T05:32:42.617Z,8.29
2023-04-16T05:33:42.576Z,8.29
2023-04-16T05:34:42.574Z,8.30
2023-04-16T05:35:42.571Z,8.28
2023-04-16T05:36:42.565Z,8.28
2023-04-16T05:37:42.538Z,8.30
2023-04-16T05:38:42.523Z,8.28
2023-04-16T05:39:42.522Z,8.26
2023-04-16T05:40:42.504Z,8.28
2023-04-16T05:41:42.496Z,8.30
2023-04-16T05:42:42.480Z,8.33
2023-04-16T05:43:42.521Z,8.33
2023-04-16T05:44:42.483Z,8.34
2023-04-16T05:45:42.522Z,8.33
2023-04-16T05:46:42.463Z,8.30
2023-04-16T05:47:42.476Z,8.34
2023-04-16T05:48:42.430Z,8.34
2023-04-16T05:49:42.431Z,8.36
2023-04-16T05:50:42.425Z,8.33
2023-04-16T05:51:42.453Z,8.33
2023-04-16T05:52:42.387Z,8.33
2023-04-16T05:53:42.421Z,8.30
2023-04-16T05:54:42.387Z,8.36
2023-04-16T05:55:42.354Z,8.36
2023-04-16T05:56:42.346Z,8.36
2023-04-16T05:57:42.330Z,8.34
2023-04-16T05:58:42.449Z,8.34
2023-04-16T05:59:42.356Z,8.30
2023-04-16T06:00:42.282Z,8.33
2023-04-16T06:01:42.314Z,8.34
2023-04-16T06:02:42.448Z,8.36
2023-04-16T06:03:42.319Z,8.34
2023-04-16T06:04:42.273Z,8.34
2023-04-16T06:05:42.289Z,8.36
2023-04-16T06:06:42.246Z,8.34
2023-04-16T06:07:42.232Z,8.34
2023-04-16T06:08:42.234Z,8.34
2023-04-16T06:09:42.207Z,8.29
2023-04-16T06:10:42.204Z,8.33
2023-04-16T06:11:42.242Z,8.30
2023-04-16T06:12:42.167Z,8.30
2023-04-16T06:13:42.159Z,8.30
2023-04-16T06:14:42.162Z,8.33
2023-04-16T06:15:42.207Z,8.33
2023-04-16T06:16:42.153Z,8.29
2023-04-16T06:17:42.123Z,8.34
2023-04-16T06:18:42.142Z,8.34
2023-04-16T06:19:42.103Z,8.29
2023-04-16T06:20:42.111Z,8.30
2023-04-16T06:21:42.087Z,8.30
2023-04-16T06:22:42.054Z,8.28
2023-04-16T06:23:42.074Z,8.25
2023-04-16T06:24:42.038Z,8.33
2023-04-16T06:25:42.021Z,8.29
2023-04-16T06:26:42.049Z,8.28
2023-04-16T06:27:42.035Z,8.28
2023-04-16T06:28:42.001Z,8.25
2023-04-16T06:29:42.109Z,8.25
2023-04-16T06:30:44.467Z,8.29
2023-04-16T06:31:42.042Z,8.34
2023-04-16T06:32:42.030Z,8.37
2023-04-16T06:33:41.941Z,8.37
2023-04-16T06:34:41.937Z,8.30
2023-04-16T06:35:41.954Z,8.30
2023-04-16T06:36:41.912Z,8.26
2023-04-16T06:37:41.898Z,8.28
2023-04-16T06:38:41.896Z,8.26
2023-04-16T06:39:41.891Z,8.28
2023-04-16T06:40:41.909Z,8.25
2023-04-16T06:41:41.859Z,8.25
2023-04-16T06:42:43.584Z,8.26
2023-04-16T06:43:41.862Z,8.28
2023-04-16T06:44:41.851Z,8.34
2023-04-16T06:45:41.836Z,8.30
2023-04-16T06:46:41.860Z,8.33
2023-04-16T06:47:41.887Z,8.36
2023-04-16T06:48:41.773Z,8.40
2023-04-16T06:49:41.813Z,8.45
2023-04-16T06:50:41.750Z,8.48
2023-04-16T06:51:41.773Z,8.48
2023-04-16T06:52:41.742Z,8.52
2023-04-16T06:53:41.737Z,8.52
2023-04-16T06:54:41.745Z,8.53
2023-04-16T06:55:41.716Z,8.48
2023-04-16T06:56:41.708Z,8.48
2023-04-16T06:57:41.691Z,8.53
2023-04-16T06:58:41.693Z,8.59
2023-04-16T06:59:41.681Z,8.63
2023-04-16T07:00:41.691Z,8.63
2023-04-16T07:01:41.707Z,8.73
2023-04-16T07:02:41.748Z,8.74
2023-04-16T07:03:41.839Z,8.74
2023-04-16T07:04:41.615Z,8.74
2023-04-16T07:05:41.605Z,8.79
2023-04-16T07:06:41.608Z,8.87
2023-04-16T07:07:41.585Z,8.87
2023-04-16T07:08:41.571Z,8.81
2023-04-16T07:09:41.563Z,8.79
2023-04-16T07:10:41.564Z,8.80
2023-04-16T07:11:41.583Z,8.83
2023-04-16T07:12:41.527Z,8.83
2023-04-16T07:13:41.522Z,8.87
2023-04-16T07:14:41.512Z,8.83
2023-04-16T07:15:41.495Z,8.80
2023-04-16T07:16:41.551Z,8.81
2023-04-16T07:17:41.540Z,8.80
2023-04-16T07:18:41.457Z,8.73
2023-04-16T07:19:41.453Z,8.73
2023-04-16T07:20:41.461Z,8.70
2023-04-16T07:21:41.477Z,8.68
2023-04-16T07:22:41.436Z,8.71
2023-04-16T07:23:41.413Z,8.76
2023-04-16T07:24:41.413Z,8.81
2023-04-16T07:25:41.387Z,8.80
2023-04-16T07:26:41.442Z,8.79
2023-04-16T07:27:41.369Z,8.80
2023-04-16T07:28:41.398Z,8.87
2023-04-16T07:29:41.399Z,8.94
2023-04-16T07:30:41.373Z,8.96
2023-04-16T07:31:41.399Z,8.99
2023-04-16T07:32:41.355Z,8.87
2023-04-16T07:33:41.324Z,8.89
2023-04-16T07:34:41.296Z,8.87
2023-04-16T07:35:41.318Z,8.84
2023-04-16T07:36:41.296Z,8.84
2023-04-16T07:37:41.276Z,8.81
2023-04-16T07:38:41.317Z,8.79
2023-04-16T07:39:41.269Z,8.87
2023-04-16T07:40:41.258Z,8.91
2023-04-16T07:41:41.409Z,9.04
2023-04-16T07:42:41.223Z,9.10
2023-04-16T07:43:41.409Z,9.15
2023-04-16T07:44:41.220Z,9.11
2023-04-16T07:45:41.594Z,9.08
2023-04-16T07:46:46.929Z,9.05
2023-04-16T07:47:41.193Z,9.02
2023-04-16T07:48:41.177Z,9.08
2023-04-16T07:49:41.145Z,8.99
2023-04-16T07:50:41.172Z,8.96
2023-04-16T07:51:41.170Z,9.02
2023-04-16T07:52:41.117Z,9.05
2023-04-16T07:53:41.120Z,8.96
2023-04-16T07:54:41.089Z,8.99
2023-04-16T07:55:41.112Z,8.96
2023-04-16T07:56:41.088Z,8.95
2023-04-16T07:57:41.062Z,9.02
2023-04-16T07:58:41.042Z,9.05
2023-04-16T07:59:41.088Z,9.01
2023-04-16T08:00:41.017Z,9.10
2023-04-16T08:01:41.019Z,9.11
2023-04-16T08:02:41.221Z,8.95
2023-04-16T08:03:41.126Z,8.95
2023-04-16T08:04:41.314Z,9.05
2023-04-16T08:05:40.969Z,9.17
2023-04-16T08:06:40.966Z,9.26
2023-04-16T08:07:40.953Z,9.32
2023-04-16T08:08:41.116Z,9.29
2023-04-16T08:09:40.935Z,9.28
2023-04-16T08:10:40.925Z,9.15
2023-04-16T08:11:40.930Z,9.08
2023-04-16T08:12:40.927Z,9.10
2023-04-16T08:13:40.929Z,9.14
2023-04-16T08:14:40.890Z,9.20
2023-04-16T08:15:40.961Z,9.24
2023-04-16T08:16:40.892Z,9.17
2023-04-16T08:17:40.864Z,9.17
2023-04-16T08:18:40.856Z,9.26
2023-04-16T08:19:40.847Z,9.24
2023-04-16T08:20:40.894Z,9.26
2023-04-16T08:21:40.816Z,9.26
2023-04-16T08:22:40.819Z,9.21
2023-04-16T08:23:40.772Z,9.14
2023-04-16T08:24:40.815Z,9.14
2023-04-16T08:25:40.833Z,9.14
2023-04-16T08:26:40.763Z,9.24
2023-04-16T08:27:40.767Z,9.32
2023-04-16T08:28:40.748Z,9.48
2023-04-16T08:29:40.713Z,9.57
2023-04-16T08:30:40.719Z,9.65
2023-04-16T08:31:40.743Z,9.69
2023-04-16T08:32:40.735Z,9.75
2023-04-16T08:33:40.683Z,9.81
2023-04-16T08:34:40.671Z,9.83
2023-04-16T08:35:40.658Z,9.74
2023-04-16T08:36:40.660Z,9.81
2023-04-16T08:37:40.658Z,9.76
2023-04-16T08:38:40.653Z,9.76
2023-04-16T08:39:40.626Z,9.78
2023-04-16T08:40:40.599Z,9.93
2023-04-16T08:41:40.589Z,9.94
2023-04-16T08:42:40.622Z,9.89
2023-04-16T08:43:40.579Z,9.89
2023-04-16T08:44:40.572Z,9.78
2023-04-16T08:45:40.546Z,9.81
2023-04-16T08:46:40.626Z,9.86
2023-04-16T08:47:40.583Z,9.81
2023-04-16T08:48:40.505Z,9.90
2023-04-16T08:49:40.538Z,9.90
2023-04-16T08:50:40.535Z,9.84
2023-04-16T08:51:40.474Z,9.87
2023-04-16T08:52:40.497Z,9.99
2023-04-16T08:53:40.469Z,9.99
2023-04-16T08:54:40.667Z,10.07
2023-04-16T08:55:40.479Z,10.08
2023-04-16T08:56:42.851Z,10.08
2023-04-16T08:57:40.424Z,10.30
2023-04-16T08:58:40.407Z,10.55
2023-04-16T08:59:40.419Z,10.81
2023-04-16T09:00:40.595Z,11.06
2023-04-16T09:01:40.425Z,11.07
2023-04-16T09:02:40.686Z,11.07
2023-04-16T09:03:40.422Z,11.07
2023-04-16T09:04:40.406Z,10.86
2023-04-16T09:05:40.374Z,10.63
2023-04-16T09:06:40.348Z,10.56
2023-04-16T09:07:40.320Z,10.52
2023-04-16T09:08:40.309Z,10.52
2023-04-16T09:09:40.313Z,10.51
2023-04-16T09:10:40.320Z,10.56
2023-04-16T09:11:40.290Z,10.67
2023-04-16T09:12:40.345Z,10.74
2023-04-16T09:13:40.264Z,10.64
2023-04-16T09:14:40.272Z,10.45
2023-04-16T09:15:40.256Z,10.53
2023-04-16T09:16:40.421Z,10.41
2023-04-16T09:17:40.262Z,10.36
2023-04-16T09:18:40.203Z,10.27
2023-04-16T09:19:40.273Z,10.33
2023-04-16T09:20:40.174Z,10.34
2023-04-16T09:21:40.190Z,10.36
2023-04-16T09:22:40.159Z,10.51
2023-04-16T09:23:40.172Z,10.60
2023-04-16T09:24:40.246Z,10.71
2023-04-16T09:25:40.132Z,10.97
2023-04-16T09:26:40.142Z,11.28
2023-04-16T09:27:40.116Z,11.47
2023-04-16T09:28:40.099Z,11.67
2023-04-16T09:29:40.103Z,11.73
2023-04-16T09:30:40.083Z,11.82
2023-04-16T09:31:40.122Z,11.90
2023-04-16T09:32:40.158Z,11.82
2023-04-16T09:33:40.062Z,12.02
2023-04-16T09:34:40.072Z,12.13
2023-04-16T09:35:40.059Z,12.37
2023-04-16T09:36:40.029Z,12.46
2023-04-16T09:37:40.027Z,12.37
2023-04-16T09:38:40.014Z,12.27
2023-04-16T09:39:40.016Z,12.28
2023-04-16T09:40:39.994Z,12.12
2023-04-16T09:41:39.971Z,11.95
2023-04-16T09:42:39.984Z,11.79
2023-04-16T09:43:39.959Z,11.72
2023-04-16T09:44:40.017Z,11.57
2023-04-16T09:45:39.990Z,11.76
2023-04-16T09:46:39.934Z,11.76
2023-04-16T09:47:40.070Z,11.49
2023-04-16T09:48:39.897Z,11.61
2023-04-16T09:49:39.898Z,11.85
2023-04-16T09:50:40.031Z,11.85
2023-04-16T09:51:39.873Z,11.76
2023-04-16T09:52:39.869Z,11.76
2023-04-16T09:53:39.880Z,11.70
2023-04-16T09:54:39.857Z,11.58
2023-04-16T09:55:39.858Z,11.60
2023-04-16T09:56:39.825Z,11.40
2023-04-16T09:57:39.815Z,11.42
2023-04-16T09:58:39.785Z,11.22
2023-04-16T09:59:39.806Z,11.11
2023-04-16T10:00:43.237Z,11.22
2023-04-16T10:01:39.843Z,11.28
2023-04-16T10:02:39.857Z,11.06
2023-04-16T10:03:40.121Z,10.91
2023-04-16T10:04:39.749Z,10.81
2023-04-16T10:05:39.760Z,10.79
2023-04-16T10:06:39.706Z,10.78
2023-04-16T10:07:39.717Z,10.82
2023-04-16T10:08:39.677Z,10.79
2023-04-16T10:09:39.696Z,10.73
2023-04-16T10:10:39.665Z,10.73
2023-04-16T10:11:39.667Z,10.78
2023-04-16T10:12:40.206Z,10.81
2023-04-16T10:13:39.651Z,10.78
2023-04-16T10:14:39.654Z,10.71
2023-04-16T10:15:39.650Z,10.74
2023-04-16T10:16:39.766Z,10.79
2023-04-16T10:17:39.630Z,10.82
2023-04-16T10:18:39.696Z,10.86
2023-04-16T10:19:39.591Z,10.89
2023-04-16T10:20:39.569Z,10.86
2023-04-16T10:21:39.552Z,10.84
2023-04-16T10:22:39.546Z,10.88
2023-04-16T10:23:39.534Z,10.89
2023-04-16T10:24:39.545Z,10.99
2023-04-16T10:25:39.538Z,11.09
2023-04-16T10:26:39.506Z,11.04
2023-04-16T10:27:39.510Z,10.99
2023-04-16T10:28:39.545Z,10.92
2023-04-16T10:29:39.475Z,10.84
2023-04-16T10:30:39.578Z,10.82
2023-04-16T10:31:39.488Z,10.82
2023-04-16T10:32:39.503Z,10.82
2023-04-16T10:33:39.457Z,10.82
2023-04-16T10:34:39.423Z,10.74
2023-04-16T10:35:39.413Z,10.73
2023-04-16T10:36:39.484Z,10.74
2023-04-16T10:37:39.397Z,10.76
2023-04-16T10:38:39.384Z,10.78
2023-04-16T10:39:39.403Z,10.86
2023-04-16T10:40:39.370Z,10.82
2023-04-16T10:41:39.378Z,10.74
2023-04-16T10:42:39.345Z,10.70
2023-04-16T10:43:39.335Z,10.73
2023-04-16T10:44:39.725Z,10.79
2023-04-16T10:45:39.312Z,10.89
2023-04-16T10:46:39.409Z,10.91
2023-04-16T10:47:39.312Z,10.88
2023-04-16T10:48:49.147Z,10.85
2023-04-16T10:49:39.330Z,10.92
2023-04-16T10:50:39.265Z,10.94
2023-04-16T10:51:39.293Z,10.96
2023-04-16T10:52:39.274Z,11.02
2023-04-16T10:53:39.216Z,11.18
2023-04-16T10:54:39.260Z,11.44
2023-04-16T10:55:39.220Z,11.60
2023-04-16T10:56:39.248Z,11.58
2023-04-16T10:57:39.244Z,11.49
2023-04-16T10:58:39.204Z,11.40
2023-04-16T10:59:39.199Z,11.35
2023-04-16T11:00:39.144Z,11.40
2023-04-16T11:01:39.188Z,11.36
2023-04-16T11:02:39.399Z,11.40
2023-04-16T11:03:39.214Z,11.51
2023-04-16T11:04:39.357Z,11.57
2023-04-16T11:05:39.120Z,11.62
2023-04-16T11:06:39.156Z,11.61
2023-04-16T11:07:39.060Z,11.72
2023-04-16T11:08:53.255Z,11.78
2023-04-16T11:09:39.080Z,11.95
2023-04-16T11:10:39.053Z,12.13
2023-04-16T11:11:39.016Z,12.38
2023-04-16T11:12:39.060Z,12.41
2023-04-16T11:13:39.012Z,12.52
2023-04-16T11:14:39.038Z,12.70
2023-04-16T11:15:39.024Z,12.74
2023-04-16T11:16:38.975Z,12.42
2023-04-16T11:17:39.022Z,12.52
2023-04-16T11:18:43.571Z,12.57
2023-04-16T11:19:38.958Z,12.60
2023-04-16T11:20:38.949Z,12.68
2023-04-16T11:21:39.021Z,12.72
2023-04-16T11:22:38.899Z,12.71
2023-04-16T11:23:38.890Z,12.79
2023-04-16T11:24:38.922Z,12.78
2023-04-16T11:25:38.863Z,12.68
2023-04-16T11:26:38.890Z,12.60
2023-04-16T11:27:38.857Z,12.54
2023-04-16T11:28:38.845Z,12.47
2023-04-16T11:29:38.860Z,12.49
2023-04-16T11:30:38.817Z,12.75
2023-04-16T11:31:38.875Z,13.04
2023-04-16T11:32:38.825Z,13.20
2023-04-16T11:33:38.790Z,13.10
2023-04-16T11:34:38.821Z,13.15
2023-04-16T11:35:38.782Z,13.20
2023-04-16T11:36:38.782Z,12.96
2023-04-16T11:37:38.738Z,12.82
2023-04-16T11:38:38.741Z,12.71
2023-04-16T11:39:38.760Z,12.85
2023-04-16T11:40:38.738Z,12.85
2023-04-16T11:41:38.752Z,12.89
2023-04-16T11:42:38.775Z,12.93
2023-04-16T11:43:38.715Z,13.00
2023-04-16T11:44:38.688Z,12.92
2023-04-16T11:45:38.659Z,12.67
2023-04-16T11:46:38.725Z,12.52
2023-04-16T11:47:38.673Z,12.70
2023-04-16T11:48:38.637Z,12.85
2023-04-16T11:49:38.608Z,12.79
2023-04-16T11:50:38.622Z,12.89
2023-04-16T11:51:38.617Z,13.01
2023-04-16T11:52:38.598Z,12.93
2023-04-16T11:53:38.569Z,13.05
2023-04-16T11:54:38.602Z,12.97
2023-04-16T11:55:38.568Z,13.07
2023-04-16T11:56:38.547Z,13.07
2023-04-16T11:57:38.536Z,13.20
2023-04-16T11:58:38.518Z,13.22
2023-04-16T11:59:38.523Z,13.14
2023-04-16T12:00:38.548Z,13.30
2023-04-16T12:01:38.506Z,13.39
2023-04-16T12:02:38.593Z,13.41
2023-04-16T12:03:38.750Z,13.54
2023-04-16T12:04:38.595Z,13.75
2023-04-16T12:05:38.493Z,13.89
2023-04-16T12:06:38.459Z,13.88
2023-04-16T12:07:38.435Z,13.87
2023-04-16T12:08:38.422Z,13.57
2023-04-16T12:09:40.446Z,13.59
2023-04-16T12:10:38.423Z,13.67
2023-04-16T12:11:38.365Z,13.54
2023-04-16T12:12:38.365Z,13.48
2023-04-16T12:13:38.354Z,13.42
2023-04-16T12:14:38.380Z,13.60
2023-04-16T12:15:38.357Z,13.71
2023-04-16T12:16:38.339Z,13.45
2023-04-16T12:17:38.464Z,13.44
2023-04-16T12:18:38.335Z,13.49
2023-04-16T12:19:38.316Z,13.67
2023-04-16T12:20:38.352Z,13.63
2023-04-16T12:21:38.287Z,13.39
2023-04-16T12:22:38.269Z,13.60
2023-04-16T12:23:38.278Z,13.70
2023-04-16T12:24:38.278Z,13.70
2023-04-16T12:25:38.275Z,13.73
2023-04-16T12:26:38.263Z,13.57
2023-04-16T12:27:38.234Z,13.29
2023-04-16T12:28:38.261Z,13.14
2023-04-16T12:29:38.217Z,12.86
2023-04-16T12:30:38.234Z,12.85
2023-04-16T12:31:38.234Z,12.67
2023-04-16T12:32:38.173Z,12.71
2023-04-16T12:33:38.157Z,12.83
2023-04-16T12:34:48.826Z,12.87
2023-04-16T12:35:38.181Z,12.78
2023-04-16T12:36:38.142Z,12.83
2023-04-16T12:37:38.113Z,12.87
2023-04-16T12:38:38.105Z,13.00
2023-04-16T12:39:38.093Z,12.93
2023-04-16T12:40:38.075Z,13.03
2023-04-16T12:41:38.079Z,13.15
2023-04-16T12:42:38.081Z,13.25
2023-04-16T12:43:38.036Z,13.23
2023-04-16T12:44:38.086Z,13.15
2023-04-16T12:45:38.056Z,13.00
2023-04-16T12:46:38.120Z,13.15
2023-04-16T12:47:38.109Z,13.25
2023-04-16T12:48:38.041Z,13.22
2023-04-16T12:49:37.986Z,13.14
2023-04-16T12:50:37.998Z,13.10
2023-04-16T12:51:37.979Z,13.25
2023-04-16T12:52:37.984Z,13.38
2023-04-16T12:53:37.926Z,13.55
2023-04-16T12:54:37.945Z,13.70
2023-04-16T12:55:37.929Z,13.92
2023-04-16T12:56:37.902Z,14.02
2023-04-16T12:57:37.900Z,14.02
2023-04-16T12:58:37.892Z,13.95
2023-04-16T12:59:37.900Z,13.63
2023-04-16T13:00:37.876Z,13.42
2023-04-16T13:01:37.873Z,13.30
2023-04-16T13:02:37.995Z,13.19
2023-04-16T13:03:37.923Z,13.23
2023-04-16T13:04:37.924Z,13.19
2023-04-16T13:05:37.848Z,13.11
2023-04-16T13:06:37.808Z,13.10
2023-04-16T13:07:37.813Z,13.12
2023-04-16T13:08:37.796Z,13.15
2023-04-16T13:09:39.617Z,13.28
2023-04-16T13:10:37.753Z,13.39
2023-04-16T13:11:37.741Z,13.45
2023-04-16T13:12:37.771Z,13.46
2023-04-16T13:13:37.756Z,13.57
2023-04-16T13:14:37.728Z,13.55
2023-04-16T13:15:37.759Z,13.60
2023-04-16T13:16:37.713Z,13.63
2023-04-16T13:17:37.732Z,13.59
2023-04-16T13:18:37.710Z,13.62
2023-04-16T13:19:37.700Z,13.60
2023-04-16T13:20:37.666Z,13.60
2023-04-16T13:21:37.640Z,13.32
2023-04-16T13:22:37.700Z,13.05
2023-04-16T13:23:37.623Z,12.96
2023-04-16T13:24:37.635Z,13.01
2023-04-16T13:25:37.640Z,13.11
2023-04-16T13:26:37.610Z,13.11
2023-04-16T13:27:37.603Z,13.08
2023-04-16T13:28:37.597Z,13.05
2023-04-16T13:29:37.568Z,13.17
2023-04-16T13:30:37.592Z,13.26
2023-04-16T13:31:37.550Z,13.32
2023-04-16T13:32:37.565Z,13.42
2023-04-16T13:33:37.517Z,13.49
2023-04-16T13:34:37.509Z,13.55
2023-04-16T13:35:37.531Z,13.69
2023-04-16T13:36:37.499Z,13.41
2023-04-16T13:37:37.473Z,13.26
2023-04-16T13:38:37.466Z,13.10
2023-04-16T13:39:37.507Z,13.14
2023-04-16T13:40:37.436Z,13.07
2023-04-16T13:41:37.444Z,12.93
2023-04-16T13:42:37.449Z,12.90
2023-04-16T13:43:37.406Z,12.87
2023-04-16T13:44:37.413Z,12.78
2023-04-16T13:45:37.429Z,12.77
2023-04-16T13:46:37.487Z,12.83
2023-04-16T13:47:37.434Z,12.83
2023-04-16T13:48:37.371Z,12.83
2023-04-16T13:49:37.356Z,12.93
2023-04-16T13:50:37.328Z,13.05
2023-04-16T13:51:37.352Z,13.07
2023-04-16T13:52:37.324Z,12.90
2023-04-16T13:53:37.320Z,12.83
2023-04-16T13:54:37.310Z,12.90
2023-04-16T13:55:37.283Z,12.86
2023-04-16T13:56:37.279Z,12.79
2023-04-16T13:57:37.278Z,12.78
2023-04-16T13:58:37.243Z,12.78
2023-04-16T13:59:37.276Z,12.77
2023-04-16T14:00:37.276Z,12.82
2023-04-16T14:01:37.248Z,12.72
2023-04-16T14:02:37.427Z,12.64
2023-04-16T14:03:37.321Z,12.47
2023-04-16T14:04:37.264Z,12.46
2023-04-16T14:05:37.187Z,12.45
2023-04-16T14:06:37.173Z,12.39
2023-04-16T14:07:37.159Z,12.32
2023-04-16T14:08:37.163Z,12.31
2023-04-16T14:09:38.045Z,12.31
2023-04-16T14:10:37.182Z,12.29
2023-04-16T14:11:37.103Z,12.31
2023-04-16T14:12:37.106Z,12.32
2023-04-16T14:13:37.116Z,12.39
2023-04-16T14:14:37.138Z,12.46
2023-04-16T14:15:37.056Z,12.52
2023-04-16T14:16:37.075Z,12.59
2023-04-16T14:17:37.183Z,12.70
2023-04-16T14:18:37.058Z,12.82
2023-04-16T14:19:37.048Z,12.92
2023-04-16T14:20:37.016Z,13.07
2023-04-16T14:21:37.000Z,13.17
2023-04-16T14:22:37.011Z,13.14
2023-04-16T14:23:36.987Z,13.07
2023-04-16T14:24:37.010Z,13.04
2023-04-16T14:25:36.951Z,13.03
2023-04-16T14:26:37.024Z,13.03
2023-04-16T14:27:36.959Z,12.95
2023-04-16T14:28:36.959Z,12.83
2023-04-16T14:29:36.936Z,12.79
2023-04-16T14:30:36.905Z,12.79
2023-04-16T14:31:36.941Z,12.86
2023-04-16T14:32:36.947Z,12.86
2023-04-16T14:33:36.888Z,12.83
2023-04-16T14:34:36.932Z,12.78
2023-04-16T14:35:36.849Z,12.77
2023-04-16T14:36:36.893Z,12.74
2023-04-16T14:37:36.824Z,12.77
2023-04-16T14:38:36.836Z,12.77
2023-04-16T14:39:36.843Z,12.89
2023-04-16T14:40:36.817Z,12.89
2023-04-16T14:41:36.804Z,12.86
2023-04-16T14:42:36.833Z,12.96
2023-04-16T14:43:38.096Z,13.07
2023-04-16T14:44:36.782Z,13.07
2023-04-16T14:45:36.791Z,12.95
2023-04-16T14:46:36.760Z,12.92
2023-04-16T14:47:36.740Z,12.95
2023-04-16T14:48:36.741Z,12.95
2023-04-16T14:49:36.705Z,12.95
2023-04-16T14:50:36.694Z,12.90
2023-04-16T14:51:36.669Z,12.85
2023-04-16T14:52:36.698Z,12.87
2023-04-16T14:53:36.684Z,12.87
2023-04-16T14:54:36.650Z,12.79
2023-04-16T14:55:36.635Z,12.78
2023-04-16T14:56:36.744Z,12.82
2023-04-16T14:57:36.608Z,12.89
2023-04-16T14:58:39.048Z,12.92
2023-04-16T14:59:36.600Z,12.95
2023-04-16T15:00:36.593Z,12.96
2023-04-16T15:01:36.595Z,12.95
2023-04-16T15:02:36.793Z,13.01
2023-04-16T15:03:36.826Z,13.04
2023-04-16T15:04:36.553Z,13.01
2023-04-16T15:05:36.558Z,13.03
2023-04-16T15:06:36.536Z,13.12
2023-04-16T15:07:36.504Z,13.22
2023-04-16T15:08:36.487Z,13.29
2023-04-16T15:09:36.528Z,13.19
2023-04-16T15:10:36.488Z,13.10
2023-04-16T15:11:36.459Z,13.03
2023-04-16T15:12:36.449Z,13.08
2023-04-16T15:13:36.493Z,13.05
2023-04-16T15:14:36.483Z,12.96
2023-04-16T15:15:36.521Z,12.92
2023-04-16T15:16:36.463Z,12.90
2023-04-16T15:17:36.430Z,12.96
2023-04-16T15:18:36.378Z,13.00
2023-04-16T15:19:36.388Z,12.97
2023-04-16T15:20:36.370Z,13.03
2023-04-16T15:21:36.361Z,13.01
2023-04-16T15:22:36.350Z,13.01
2023-04-16T15:23:36.362Z,13.05
2023-04-16T15:24:36.328Z,12.97
2023-04-16T15:25:36.324Z,12.93
2023-04-16T15:26:36.296Z,12.92
2023-04-16T15:27:36.302Z,12.92
2023-04-16T15:28:36.302Z,12.85
2023-04-16T15:29:36.315Z,12.74
2023-04-16T15:30:36.274Z,12.71
2023-04-16T15:31:36.244Z,12.67
2023-04-16T15:32:36.262Z,12.68
2023-04-16T15:33:36.269Z,12.67
2023-04-16T15:34:36.222Z,12.67
2023-04-16T15:35:36.207Z,12.71
2023-04-16T15:36:36.183Z,12.77
2023-04-16T15:37:36.182Z,12.86
2023-04-16T15:38:36.172Z,13.00
2023-04-16T15:39:36.297Z,13.17
2023-04-16T15:40:36.270Z,13.33
2023-04-16T15:41:37.051Z,13.33
2023-04-16T15:42:36.151Z,13.41
2023-04-16T15:43:36.199Z,13.54
2023-04-16T15:44:36.116Z,13.69
2023-04-16T15:45:36.128Z,13.75
2023-04-16T15:46:36.147Z,13.85
2023-04-16T15:47:36.165Z,13.71
2023-04-16T15:48:36.069Z,13.62
2023-04-16T15:49:36.088Z,13.63
2023-04-16T15:50:36.134Z,13.64
2023-04-16T15:51:36.066Z,13.64
2023-04-16T15:52:36.083Z,13.57
2023-04-16T15:53:36.123Z,13.44
2023-04-16T15:54:36.074Z,13.41
2023-04-16T15:55:36.063Z,13.30
2023-04-16T15:56:36.043Z,13.38
2023-04-16T15:57:35.973Z,13.48
2023-04-16T15:58:36.015Z,13.55
2023-04-16T15:59:36.015Z,13.54
2023-04-16T16:00:35.971Z,13.62
2023-04-16T16:01:36.043Z,13.62
2023-04-16T16:02:36.249Z,13.64
2023-04-16T16:03:36.159Z,13.63
2023-04-16T16:04:36.025Z,13.55
2023-04-16T16:05:35.907Z,13.60
2023-04-16T16:06:35.884Z,13.62
2023-04-16T16:07:35.873Z,13.66
2023-04-16T16:08:35.861Z,13.66
2023-04-16T16:09:35.845Z,13.66
2023-04-16T16:10:35.847Z,13.59
2023-04-16T16:11:35.826Z,13.51
2023-04-16T16:12:35.813Z,13.42
2023-04-16T16:13:35.815Z,13.33
2023-04-16T16:14:36.182Z,13.29
2023-04-16T16:15:35.794Z,13.20
2023-04-16T16:16:35.889Z,13.12
2023-04-16T16:17:35.770Z,13.11
2023-04-16T16:18:35.753Z,13.07
2023-04-16T16:19:35.757Z,13.05
2023-04-16T16:20:35.726Z,13.03
2023-04-16T16:21:35.775Z,13.03
2023-04-16T16:22:35.709Z,13.05
2023-04-16T16:23:35.725Z,13.07
2023-04-16T16:24:35.722Z,13.05
2023-04-16T16:25:35.692Z,13.01
2023-04-16T16:26:35.693Z,12.95
2023-04-16T16:27:35.682Z,12.93
2023-04-16T16:28:35.635Z,12.93
2023-04-16T16:29:35.649Z,13.01
2023-04-16T16:30:35.622Z,13.10
2023-04-16T16:31:35.683Z,13.19
2023-04-16T16:32:35.648Z,13.20
2023-04-16T16:33:35.976Z,13.19
2023-04-16T16:34:35.593Z,13.17
2023-04-16T16:35:35.591Z,13.15
2023-04-16T16:36:35.592Z,13.25
2023-04-16T16:37:35.554Z,13.30
2023-04-16T16:38:35.526Z,13.25
2023-04-16T16:39:37.253Z,13.28
2023-04-16T16:40:35.518Z,13.28
2023-04-16T16:41:35.493Z,13.28
2023-04-16T16:42:35.569Z,13.33
2023-04-16T16:43:35.490Z,13.38
2023-04-16T16:44:35.529Z,13.38
2023-04-16T16:45:35.493Z,13.32
2023-04-16T16:46:35.452Z,13.32
2023-04-16T16:47:35.471Z,13.32
2023-04-16T16:48:35.449Z,13.36
2023-04-16T16:49:35.418Z,13.30
2023-04-16T16:50:35.408Z,13.33
2023-04-16T16:51:35.406Z,13.39
2023-04-16T16:52:35.385Z,13.41
2023-04-16T16:53:35.366Z,13.42
2023-04-16T16:54:35.373Z,13.42
2023-04-16T16:55:35.361Z,13.42
2023-04-16T16:56:35.339Z,13.45
2023-04-16T16:57:35.351Z,13.45
2023-04-16T16:58:35.330Z,13.46
2023-04-16T16:59:35.335Z,13.49
2023-04-16T17:00:35.343Z,13.48
2023-04-16T17:01:35.480Z,13.46
2023-04-16T17:02:35.372Z,13.44